sensor_id;sensor_type;location;lat;lon;timestamp;pressure;altitude;pressure_sealevel;temperature;humidity
71716;BME280;59568;52.128;5.434;2022-12-18T00:01:33;103036.72;;;-3.86;95.74
71716;BME280;59568;52.128;5.434;2022-12-18T00:04:02;103027.59;;;-3.88;95.69
71716;BME280;59568;52.128;5.434;2022-12-18T00:06:29;103023.16;;;-3.86;95.78
71716;BME280;59568;52.128;5.434;2022-12-18T00:08:57;103021.81;;;-3.90;96.09
71716;BME280;59568;52.128;5.434;2022-12-18T00:11:27;103015.31;;;-3.94;95.59
71716;BME280;59568;52.128;5.434;2022-12-18T00:13:55;103008.88;;;-3.98;95.55
71716;BME280;59568;52.128;5.434;2022-12-18T00:16:24;103008.47;;;-4.04;95.94
71716;BME280;59568;52.128;5.434;2022-12-18T00:18:53;103008.59;;;-4.05;95.39
71716;BME280;59568;52.128;5.434;2022-12-18T00:21:20;103013.72;;;-4.05;95.98
71716;BME280;59568;52.128;5.434;2022-12-18T00:23:48;103012.91;;;-4.06;95.87
71716;BME280;59568;52.128;5.434;2022-12-18T00:26:21;103015.19;;;-4.03;95.66
71716;BME280;59568;52.128;5.434;2022-12-18T00:28:49;103022.59;;;-3.99;96.01
71716;BME280;59568;52.128;5.434;2022-12-18T00:31:19;103019.91;;;-3.98;95.81
71716;BME280;59568;52.128;5.434;2022-12-18T00:33:46;103025.03;;;-3.98;95.93
71716;BME280;59568;52.128;5.434;2022-12-18T00:36:17;103007.94;;;-3.97;95.78
71716;BME280;59568;52.128;5.434;2022-12-18T00:38:44;103009.94;;;-4.01;95.79
71716;BME280;59568;52.128;5.434;2022-12-18T00:41:12;103006.84;;;-4.05;95.87
71716;BME280;59568;52.128;5.434;2022-12-18T00:43:39;103003.78;;;-4.08;95.78
71716;BME280;59568;52.128;5.434;2022-12-18T00:46:06;103002.44;;;-4.12;96.14
71716;BME280;59568;52.128;5.434;2022-12-18T00:48:33;103012.91;;;-4.15;95.81
71716;BME280;59568;52.128;5.434;2022-12-18T00:50:59;103010.47;;;-4.17;95.55
71716;BME280;59568;52.128;5.434;2022-12-18T00:53:26;103007.25;;;-4.19;95.76
71716;BME280;59568;52.128;5.434;2022-12-18T00:55:52;103021.22;;;-4.23;95.71
71716;BME280;59568;52.128;5.434;2022-12-18T00:58:19;103014.91;;;-4.19;95.97
71716;BME280;59568;52.128;5.434;2022-12-18T01:00:45;103009.69;;;-4.17;95.77
71716;BME280;59568;52.128;5.434;2022-12-18T01:03:13;103009.69;;;-4.17;95.71
71716;BME280;59568;52.128;5.434;2022-12-18T01:05:41;103004.44;;;-4.16;96.05
71716;BME280;59568;52.128;5.434;2022-12-18T01:08:08;102997.03;;;-4.19;96.01
71716;BME280;59568;52.128;5.434;2022-12-18T01:10:35;102993.81;;;-4.21;95.70
71716;BME280;59568;52.128;5.434;2022-12-18T01:13:02;102989.00;;;-4.24;95.82
71716;BME280;59568;52.128;5.434;2022-12-18T01:15:28;102988.84;;;-4.23;96.06
71716;BME280;59568;52.128;5.434;2022-12-18T01:17:54;102999.88;;;-4.22;95.75
71716;BME280;59568;52.128;5.434;2022-12-18T01:20:21;103001.59;;;-4.23;95.70
71716;BME280;59568;52.128;5.434;2022-12-18T01:22:47;103005.91;;;-4.23;95.29
71716;BME280;59568;52.128;5.434;2022-12-18T01:25:14;103007.78;;;-4.25;95.60
71716;BME280;59568;52.128;5.434;2022-12-18T01:27:40;103007.78;;;-4.25;95.60
71716;BME280;59568;52.128;5.434;2022-12-18T01:30:07;103024.56;;;-4.23;95.69
71716;BME280;59568;52.128;5.434;2022-12-18T01:32:34;103024.75;;;-4.24;95.76
71716;BME280;59568;52.128;5.434;2022-12-18T01:35:00;103018.97;;;-4.26;95.59
71716;BME280;59568;52.128;5.434;2022-12-18T01:37:27;103024.19;;;-4.28;95.67
71716;BME280;59568;52.128;5.434;2022-12-18T01:39:53;103030.09;;;-4.27;95.70
71716;BME280;59568;52.128;5.434;2022-12-18T01:42:21;103025.50;;;-4.33;95.51
71716;BME280;59568;52.128;5.434;2022-12-18T01:47:45;103036.53;;;-4.43;95.20
71716;BME280;59568;52.128;5.434;2022-12-18T01:55:43;103028.16;;;-4.64;95.04
71716;BME280;59568;52.128;5.434;2022-12-18T01:58:11;103029.59;;;-4.71;95.07
71716;BME280;59568;52.128;5.434;2022-12-18T02:00:38;103029.19;;;-4.76;94.92
71716;BME280;59568;52.128;5.434;2022-12-18T02:03:04;103019.50;;;-4.83;94.96
71716;BME280;59568;52.128;5.434;2022-12-18T02:05:53;103032.09;;;-4.91;94.75
71716;BME280;59568;52.128;5.434;2022-12-18T02:08:41;103041.84;;;-4.96;94.72
71716;BME280;59568;52.128;5.434;2022-12-18T02:11:33;103038.72;;;-4.99;94.88
71716;BME280;59568;52.128;5.434;2022-12-18T02:14:36;103038.44;;;-5.06;94.82
71716;BME280;59568;52.128;5.434;2022-12-18T02:22:42;103029.25;;;-5.18;94.55
71716;BME280;59568;52.128;5.434;2022-12-18T02:27:47;103040.47;;;-5.31;94.49
71716;BME280;59568;52.128;5.434;2022-12-18T02:30:15;103044.19;;;-5.35;94.67
71716;BME280;59568;52.128;5.434;2022-12-18T02:32:46;103035.19;;;-5.39;94.56
71716;BME280;59568;52.128;5.434;2022-12-18T02:35:21;103036.38;;;-5.43;94.82
71716;BME280;59568;52.128;5.434;2022-12-18T02:37:48;103033.38;;;-5.48;94.38
71716;BME280;59568;52.128;5.434;2022-12-18T02:40:16;103030.94;;;-5.50;94.68
71716;BME280;59568;52.128;5.434;2022-12-18T02:42:43;103032.94;;;-5.53;94.41
71716;BME280;59568;52.128;5.434;2022-12-18T02:45:10;103022.31;;;-5.58;94.35
71716;BME280;59568;52.128;5.434;2022-12-18T02:47:38;103019.88;;;-5.60;94.42
71716;BME280;59568;52.128;5.434;2022-12-18T02:53:25;103006.16;;;-5.69;94.52
71716;BME280;59568;52.128;5.434;2022-12-18T02:56:11;103013.34;;;-5.74;94.50
71716;BME280;59568;52.128;5.434;2022-12-18T02:59:06;103011.97;;;-5.78;94.50
71716;BME280;59568;52.128;5.434;2022-12-18T03:04:05;103009.94;;;-5.84;94.37
71716;BME280;59568;52.128;5.434;2022-12-18T03:06:40;103004.28;;;-5.88;94.22
71716;BME280;59568;52.128;5.434;2022-12-18T03:09:15;102996.22;;;-5.93;94.15
71716;BME280;59568;52.128;5.434;2022-12-18T03:11:47;102995.66;;;-5.96;94.07
71716;BME280;59568;52.128;5.434;2022-12-18T03:14:37;102989.47;;;-6.04;94.24
71716;BME280;59568;52.128;5.434;2022-12-18T03:17:09;102996.53;;;-6.07;94.14
71716;BME280;59568;52.128;5.434;2022-12-18T03:19:37;102990.06;;;-6.11;93.79
71716;BME280;59568;52.128;5.434;2022-12-18T03:22:07;102990.19;;;-6.13;93.99
71716;BME280;59568;52.128;5.434;2022-12-18T03:24:35;102989.38;;;-6.13;94.00
71716;BME280;59568;52.128;5.434;2022-12-18T03:27:09;102983.47;;;-6.14;94.13
71716;BME280;59568;52.128;5.434;2022-12-18T03:29:40;102981.19;;;-6.17;94.36
71716;BME280;59568;52.128;5.434;2022-12-18T03:32:16;102981.41;;;-6.20;94.47
71716;BME280;59568;52.128;5.434;2022-12-18T03:34:47;102973.09;;;-6.22;94.25
71716;BME280;59568;52.128;5.434;2022-12-18T03:37:16;102964.91;;;-6.26;94.34
71716;BME280;59568;52.128;5.434;2022-12-18T03:39:42;102972.53;;;-6.26;94.15
71716;BME280;59568;52.128;5.434;2022-12-18T03:42:26;102963.38;;;-6.28;94.11
71716;BME280;59568;52.128;5.434;2022-12-18T03:45:18;102963.53;;;-6.30;94.46
71716;BME280;59568;52.128;5.434;2022-12-18T03:48:01;102956.94;;;-6.32;94.22
71716;BME280;59568;52.128;5.434;2022-12-18T03:50:57;102957.19;;;-6.35;94.25
71716;BME280;59568;52.128;5.434;2022-12-18T03:55:59;102959.84;;;-6.37;94.48
71716;BME280;59568;52.128;5.434;2022-12-18T03:58:27;102965.03;;;-6.38;94.19
71716;BME280;59568;52.128;5.434;2022-12-18T04:00:56;102960.91;;;-6.39;94.26
71716;BME280;59568;52.128;5.434;2022-12-18T04:03:26;102964.34;;;-6.40;94.62
71716;BME280;59568;52.128;5.434;2022-12-18T04:05:55;102951.75;;;-6.42;94.38
71716;BME280;59568;52.128;5.434;2022-12-18T04:08:23;102958.69;;;-6.44;94.68
71716;BME280;59568;52.128;5.434;2022-12-18T04:10:51;102946.13;;;-6.46;94.63
71716;BME280;59568;52.128;5.434;2022-12-18T04:13:27;102952.22;;;-6.48;94.58
71716;BME280;59568;52.128;5.434;2022-12-18T04:15:54;102948.47;;;-6.54;94.45
71716;BME280;59568;52.128;5.434;2022-12-18T04:18:20;102933.31;;;-6.55;94.64
71716;BME280;59568;52.128;5.434;2022-12-18T04:20:47;102928.09;;;-6.54;94.44
71716;BME280;59568;52.128;5.434;2022-12-18T04:23:13;102930.66;;;-6.54;94.68
71716;BME280;59568;52.128;5.434;2022-12-18T04:25:40;102932.50;;;-6.56;94.65
71716;BME280;59568;52.128;5.434;2022-12-18T04:28:06;102927.66;;;-6.59;94.25
71716;BME280;59568;52.128;5.434;2022-12-18T04:30:33;102930.19;;;-6.59;94.61
71716;BME280;59568;52.128;5.434;2022-12-18T04:32:59;102919.44;;;-6.63;94.51
71716;BME280;59568;52.128;5.434;2022-12-18T04:35:26;102921.31;;;-6.65;94.59
71716;BME280;59568;52.128;5.434;2022-12-18T04:37:53;102920.72;;;-6.68;94.48
71716;BME280;59568;52.128;5.434;2022-12-18T04:40:19;102930.09;;;-6.69;94.21
71716;BME280;59568;52.128;5.434;2022-12-18T04:42:45;102926.06;;;-6.71;94.24
71716;BME280;59568;52.128;5.434;2022-12-18T04:45:12;102934.75;;;-6.74;94.09
71716;BME280;59568;52.128;5.434;2022-12-18T04:47:39;102944.44;;;-6.79;94.26
71716;BME280;59568;52.128;5.434;2022-12-18T04:50:05;102953.00;;;-6.80;93.98
71716;BME280;59568;52.128;5.434;2022-12-18T04:52:32;102958.91;;;-6.79;94.10
71716;BME280;59568;52.128;5.434;2022-12-18T04:54:58;102961.56;;;-6.81;94.08
71716;BME280;59568;52.128;5.434;2022-12-18T04:57:25;102962.34;;;-6.80;94.52
71716;BME280;59568;52.128;5.434;2022-12-18T04:59:52;102957.53;;;-6.84;94.10
71716;BME280;59568;52.128;5.434;2022-12-18T05:02:18;102961.78;;;-6.84;94.22
71716;BME280;59568;52.128;5.434;2022-12-18T05:04:45;102971.25;;;-6.86;94.42
71716;BME280;59568;52.128;5.434;2022-12-18T05:07:11;102971.38;;;-6.88;94.40
71716;BME280;59568;52.128;5.434;2022-12-18T05:09:38;102972.31;;;-6.89;94.09
71716;BME280;59568;52.128;5.434;2022-12-18T05:12:04;102986.66;;;-6.88;94.17
71716;BME280;59568;52.128;5.434;2022-12-18T05:14:31;102975.88;;;-6.91;94.06
71716;BME280;59568;52.128;5.434;2022-12-18T05:16:57;102976.94;;;-6.94;94.04
71716;BME280;59568;52.128;5.434;2022-12-18T05:19:26;102984.44;;;-6.92;93.89
71716;BME280;59568;52.128;5.434;2022-12-18T05:21:53;102985.47;;;-6.95;94.17
71716;BME280;59568;52.128;5.434;2022-12-18T05:24:19;102988.03;;;-6.95;93.94
71716;BME280;59568;52.128;5.434;2022-12-18T05:26:46;102989.75;;;-6.95;94.18
71716;BME280;59568;52.128;5.434;2022-12-18T05:29:12;102988.25;;;-6.98;93.87
71716;BME280;59568;52.128;5.434;2022-12-18T05:31:39;103004.31;;;-6.97;94.28
71716;BME280;59568;52.128;5.434;2022-12-18T05:34:08;103001.88;;;-6.99;94.10
71716;BME280;59568;52.128;5.434;2022-12-18T05:36:35;103004.41;;;-6.99;94.01
71716;BME280;59568;52.128;5.434;2022-12-18T05:39:02;103007.06;;;-7.00;94.44
71716;BME280;59568;52.128;5.434;2022-12-18T05:41:29;103004.66;;;-7.02;93.75
71716;BME280;59568;52.128;5.434;2022-12-18T05:43:56;102994.50;;;-7.02;93.92
71716;BME280;59568;52.128;5.434;2022-12-18T05:46:22;102981.66;;;-7.00;94.31
71716;BME280;59568;52.128;5.434;2022-12-18T05:48:50;102979.69;;;-6.97;94.25
71716;BME280;59568;52.128;5.434;2022-12-18T05:51:20;102982.03;;;-6.94;94.27
71716;BME280;59568;52.128;5.434;2022-12-18T05:53:47;102976.25;;;-6.96;94.58
71716;BME280;59568;52.128;5.434;2022-12-18T05:56:17;102971.38;;;-6.99;94.32
71716;BME280;59568;52.128;5.434;2022-12-18T05:58:44;102971.50;;;-7.00;94.52
71716;BME280;59568;52.128;5.434;2022-12-18T06:01:17;102970.94;;;-7.04;94.47
71716;BME280;59568;52.128;5.434;2022-12-18T06:03:44;102964.34;;;-7.07;94.08
71716;BME280;59568;52.128;5.434;2022-12-18T06:06:13;102964.47;;;-7.08;93.81
71716;BME280;59568;52.128;5.434;2022-12-18T06:08:40;102959.41;;;-7.08;93.96
71716;BME280;59568;52.128;5.434;2022-12-18T06:11:12;102964.59;;;-7.10;94.25
71716;BME280;59568;52.128;5.434;2022-12-18T06:13:39;102956.38;;;-7.13;93.85
71716;BME280;59568;52.128;5.434;2022-12-18T06:16:06;102952.19;;;-7.14;94.40
71716;BME280;59568;52.128;5.434;2022-12-18T06:18:37;102949.09;;;-7.18;94.11
71716;BME280;59568;52.128;5.434;2022-12-18T06:21:04;102946.09;;;-7.23;94.35
71716;BME280;59568;52.128;5.434;2022-12-18T06:23:30;102945.28;;;-7.24;93.97
71716;BME280;59568;52.128;5.434;2022-12-18T06:25:57;102938.59;;;-7.25;93.68
71716;BME280;59568;52.128;5.434;2022-12-18T06:28:23;102942.06;;;-7.26;94.07
71716;BME280;59568;52.128;5.434;2022-12-18T06:30:50;102941.00;;;-7.23;94.05
71716;BME280;59568;52.128;5.434;2022-12-18T06:33:17;102936.28;;;-7.28;93.58
71716;BME280;59568;52.128;5.434;2022-12-18T06:35:43;102941.81;;;-7.34;93.83
71716;BME280;59568;52.128;5.434;2022-12-18T06:38:10;102933.63;;;-7.37;93.81
71716;BME280;59568;52.128;5.434;2022-12-18T06:40:37;102928.75;;;-7.40;93.78
71716;BME280;59568;52.128;5.434;2022-12-18T06:43:05;102928.19;;;-7.44;94.03
71716;BME280;59568;52.128;5.434;2022-12-18T06:45:32;102926.69;;;-7.47;93.51
71716;BME280;59568;52.128;5.434;2022-12-18T06:47:59;102925.19;;;-7.49;93.99
71716;BME280;59568;52.128;5.434;2022-12-18T06:50:26;102915.81;;;-7.49;93.98
71716;BME280;59568;52.128;5.434;2022-12-18T06:52:53;102905.91;;;-7.52;93.45
71716;BME280;59568;52.128;5.434;2022-12-18T06:55:19;102910.28;;;-7.54;93.62
71716;BME280;59568;52.128;5.434;2022-12-18T06:57:46;102906.97;;;-7.54;93.74
71716;BME280;59568;52.128;5.434;2022-12-18T07:00:12;102901.88;;;-7.54;93.16
71716;BME280;59568;52.128;5.434;2022-12-18T07:02:39;102891.81;;;-7.56;93.53
71716;BME280;59568;52.128;5.434;2022-12-18T07:05:07;102899.44;;;-7.56;93.97
71716;BME280;59568;52.128;5.434;2022-12-18T07:07:36;102888.00;;;-7.61;93.68
71716;BME280;59568;52.128;5.434;2022-12-18T07:10:03;102895.63;;;-7.61;93.47
71716;BME280;59568;52.128;5.434;2022-12-18T07:12:30;102895.03;;;-7.65;93.66
71716;BME280;59568;52.128;5.434;2022-12-18T07:14:56;102896.78;;;-7.66;93.21
71716;BME280;59568;52.128;5.434;2022-12-18T07:17:23;102892.50;;;-7.65;93.20
71716;BME280;59568;52.128;5.434;2022-12-18T07:19:49;102880.75;;;-7.66;93.54
71716;BME280;59568;52.128;5.434;2022-12-18T07:22:16;102883.28;;;-7.66;93.46
71716;BME280;59568;52.128;5.434;2022-12-18T07:24:42;102885.94;;;-7.68;93.59
71716;BME280;59568;52.128;5.434;2022-12-18T07:27:08;102890.06;;;-7.67;93.48
71716;BME280;59568;52.128;5.434;2022-12-18T07:29:35;102888.34;;;-7.66;93.66
71716;BME280;59568;52.128;5.434;2022-12-18T07:32:03;102880.75;;;-7.66;93.10
71716;BME280;59568;52.128;5.434;2022-12-18T07:34:29;102874.72;;;-7.65;93.75
71716;BME280;59568;52.128;5.434;2022-12-18T07:36:56;102861.94;;;-7.64;93.91
71716;BME280;59568;52.128;5.434;2022-12-18T07:39:22;102861.00;;;-7.63;93.79
71716;BME280;59568;52.128;5.434;2022-12-18T07:41:49;102865.16;;;-7.61;93.66
71716;BME280;59568;52.128;5.434;2022-12-18T07:44:35;102860.09;;;-7.61;94.07
71716;BME280;59568;52.128;5.434;2022-12-18T07:47:02;102853.38;;;-7.63;93.93
71716;BME280;59568;52.128;5.434;2022-12-18T07:49:35;102851.56;;;-7.60;93.50
71716;BME280;59568;52.128;5.434;2022-12-18T07:52:02;102844.63;;;-7.58;93.84
71716;BME280;59568;52.128;5.434;2022-12-18T07:54:29;102839.31;;;-7.55;93.97
71716;BME280;59568;52.128;5.434;2022-12-18T07:56:55;102832.38;;;-7.53;93.94
71716;BME280;59568;52.128;5.434;2022-12-18T07:59:22;102831.81;;;-7.46;93.80
71716;BME280;59568;52.128;5.434;2022-12-18T08:01:48;102840.00;;;-7.42;93.91
71716;BME280;59568;52.128;5.434;2022-12-18T08:04:15;102836.31;;;-7.38;94.17
71716;BME280;59568;52.128;5.434;2022-12-18T08:06:41;102834.22;;;-7.33;93.99
71716;BME280;59568;52.128;5.434;2022-12-18T08:09:13;102827.06;;;-7.28;94.14
71716;BME280;59568;52.128;5.434;2022-12-18T08:11:39;102814.00;;;-7.23;94.13
71716;BME280;59568;52.128;5.434;2022-12-18T08:14:06;102814.31;;;-7.16;94.44
71716;BME280;59568;52.128;5.434;2022-12-18T08:16:33;102813.84;;;-7.10;94.28
71716;BME280;59568;52.128;5.434;2022-12-18T08:18:59;102827.81;;;-7.05;94.46
71716;BME280;59568;52.128;5.434;2022-12-18T08:21:28;102817.66;;;-7.05;94.65
71716;BME280;59568;52.128;5.434;2022-12-18T08:23:57;102819.00;;;-7.00;94.31
71716;BME280;59568;52.128;5.434;2022-12-18T08:26:25;102829.75;;;-6.97;94.39
71716;BME280;59568;52.128;5.434;2022-12-18T08:28:54;102835.03;;;-6.89;94.31
71716;BME280;59568;52.128;5.434;2022-12-18T08:31:21;102843.94;;;-6.83;94.54
71716;BME280;59568;52.128;5.434;2022-12-18T08:33:51;102850.28;;;-6.77;94.44
71716;BME280;59568;52.128;5.434;2022-12-18T08:36:19;102861.81;;;-6.73;94.62
71716;BME280;59568;52.128;5.434;2022-12-18T08:38:46;102851.38;;;-6.70;94.43
71716;BME280;59568;52.128;5.434;2022-12-18T08:41:15;102841.22;;;-6.70;94.77
71716;BME280;59568;52.128;5.434;2022-12-18T08:43:42;102851.97;;;-6.67;94.42
71716;BME280;59568;52.128;5.434;2022-12-18T08:46:32;102840.72;;;-6.64;94.86
71716;BME280;59568;52.128;5.434;2022-12-18T08:49:00;102835.41;;;-6.61;94.22
71716;BME280;59568;52.128;5.434;2022-12-18T08:51:28;102836.00;;;-6.57;93.92
71716;BME280;59568;52.128;5.434;2022-12-18T08:53:54;102841.66;;;-6.54;94.33
71716;BME280;59568;52.128;5.434;2022-12-18T08:56:20;102836.97;;;-6.49;94.85
71716;BME280;59568;52.128;5.434;2022-12-18T08:58:47;102832.34;;;-6.44;94.51
71716;BME280;59568;52.128;5.434;2022-12-18T09:01:14;102831.69;;;-6.36;94.01
71716;BME280;59568;52.128;5.434;2022-12-18T09:03:41;102842.91;;;-6.27;94.78
71716;BME280;59568;52.128;5.434;2022-12-18T09:06:08;102855.81;;;-6.19;94.52
71716;BME280;59568;52.128;5.434;2022-12-18T09:08:34;102845.91;;;-6.12;95.06
71716;BME280;59568;52.128;5.434;2022-12-18T09:11:01;102840.31;;;-6.06;94.67
71716;BME280;59568;52.128;5.434;2022-12-18T09:13:27;102833.81;;;-5.99;94.52
71716;BME280;59568;52.128;5.434;2022-12-18T09:15:54;102839.97;;;-5.92;94.86
71716;BME280;59568;52.128;5.434;2022-12-18T09:18:23;102845.78;;;-5.80;94.93
71716;BME280;59568;52.128;5.434;2022-12-18T09:20:50;102831.63;;;-5.73;94.99
71716;BME280;59568;52.128;5.434;2022-12-18T09:23:19;102836.88;;;-5.65;95.15
71716;BME280;59568;52.128;5.434;2022-12-18T09:25:45;102838.91;;;-5.58;95.12
71716;BME280;59568;52.128;5.434;2022-12-18T09:28:13;102839.31;;;-5.53;94.84
71716;BME280;59568;52.128;5.434;2022-12-18T09:30:43;102831.88;;;-5.45;94.93
71716;BME280;59568;52.128;5.434;2022-12-18T09:33:10;102835.50;;;-5.38;94.83
71716;BME280;59568;52.128;5.434;2022-12-18T09:35:39;102832.31;;;-5.30;95.13
71716;BME280;59568;52.128;5.434;2022-12-18T09:38:06;102820.50;;;-5.22;94.97
71716;BME280;59568;52.128;5.434;2022-12-18T09:40:36;102809.66;;;-5.14;94.95
71716;BME280;59568;52.128;5.434;2022-12-18T09:43:06;102803.91;;;-5.06;95.02
71716;BME280;59568;52.128;5.434;2022-12-18T09:45:41;102803.13;;;-4.97;95.17
71716;BME280;59568;52.128;5.434;2022-12-18T09:48:26;102810.09;;;-4.89;95.04
71716;BME280;59568;52.128;5.434;2022-12-18T09:50:59;102801.09;;;-4.84;95.39
71716;BME280;59568;52.128;5.434;2022-12-18T09:53:31;102798.53;;;-4.74;95.43
71716;BME280;59568;52.128;5.434;2022-12-18T09:56:03;102782.44;;;-4.65;95.07
71716;BME280;59568;52.128;5.434;2022-12-18T09:58:43;102782.69;;;-4.58;95.26
71716;BME280;59568;52.128;5.434;2022-12-18T10:01:21;102786.97;;;-4.49;95.02
71716;BME280;59568;52.128;5.434;2022-12-18T10:03:50;102788.84;;;-4.41;95.36
71716;BME280;59568;52.128;5.434;2022-12-18T10:09:28;102789.72;;;-4.23;95.12
71716;BME280;59568;52.128;5.434;2022-12-18T10:12:03;102777.22;;;-4.16;95.20
71716;BME280;59568;52.128;5.434;2022-12-18T10:17:30;102773.13;;;-3.99;95.36
71716;BME280;59568;52.128;5.434;2022-12-18T10:20:30;102770.00;;;-3.93;95.04
71716;BME280;59568;52.128;5.434;2022-12-18T10:23:03;102776.97;;;-3.85;95.11
71716;BME280;59568;52.128;5.434;2022-12-18T10:26:00;102777.88;;;-3.76;94.92
71716;BME280;59568;52.128;5.434;2022-12-18T10:28:30;102775.84;;;-3.73;95.07
71716;BME280;59568;52.128;5.434;2022-12-18T10:30:58;102780.50;;;-3.68;95.09
71716;BME280;59568;52.128;5.434;2022-12-18T10:33:29;102767.84;;;-3.60;94.90
71716;BME280;59568;52.128;5.434;2022-12-18T10:35:56;102760.53;;;-3.55;94.88
71716;BME280;59568;52.128;5.434;2022-12-18T10:38:30;102750.53;;;-3.48;94.90
71716;BME280;59568;52.128;5.434;2022-12-18T10:41:01;102752.69;;;-3.44;94.70
71716;BME280;59568;52.128;5.434;2022-12-18T10:43:31;102766.66;;;-3.38;94.39
71716;BME280;59568;52.128;5.434;2022-12-18T10:48:55;102757.00;;;-3.26;94.44
71716;BME280;59568;52.128;5.434;2022-12-18T10:54:23;102746.56;;;-3.15;94.10
71716;BME280;59568;52.128;5.434;2022-12-18T10:56:50;102736.53;;;-3.08;94.20
71716;BME280;59568;52.128;5.434;2022-12-18T10:59:17;102737.84;;;-3.04;94.52
71716;BME280;59568;52.128;5.434;2022-12-18T11:04:20;102730.22;;;-2.96;94.05
71716;BME280;59568;52.128;5.434;2022-12-18T11:07:06;102723.22;;;-2.94;93.89
71716;BME280;59568;52.128;5.434;2022-12-18T11:09:37;102723.59;;;-2.89;93.62
71716;BME280;59568;52.128;5.434;2022-12-18T11:12:15;102723.13;;;-2.84;93.74
71716;BME280;59568;52.128;5.434;2022-12-18T11:14:54;102706.69;;;-2.82;93.46
71716;BME280;59568;52.128;5.434;2022-12-18T11:17:32;102706.25;;;-2.77;93.66
71716;BME280;59568;52.128;5.434;2022-12-18T11:20:04;102704.84;;;-2.71;93.44
71716;BME280;59568;52.128;5.434;2022-12-18T11:22:36;102701.81;;;-2.67;93.19
71716;BME280;59568;52.128;5.434;2022-12-18T11:25:18;102697.88;;;-2.61;93.05
71716;BME280;59568;52.128;5.434;2022-12-18T11:28:02;102688.59;;;-2.54;93.00
71716;BME280;59568;52.128;5.434;2022-12-18T11:30:31;102687.66;;;-2.53;93.24
71716;BME280;59568;52.128;5.434;2022-12-18T11:33:19;102683.69;;;-2.47;92.70
71716;BME280;59568;52.128;5.434;2022-12-18T11:35:51;102692.50;;;-2.42;92.65
71716;BME280;59568;52.128;5.434;2022-12-18T11:38:24;102693.00;;;-2.38;92.59
71716;BME280;59568;52.128;5.434;2022-12-18T11:40:59;102696.72;;;-2.32;92.30
71716;BME280;59568;52.128;5.434;2022-12-18T11:43:53;102697.88;;;-2.27;92.44
71716;BME280;59568;52.128;5.434;2022-12-18T11:48:58;102684.94;;;-2.17;91.77
71716;BME280;59568;52.128;5.434;2022-12-18T11:51:43;102678.38;;;-2.11;91.75
71716;BME280;59568;52.128;5.434;2022-12-18T11:54:15;102684.66;;;-2.06;91.99
71716;BME280;59568;52.128;5.434;2022-12-18T11:56:48;102675.06;;;-2.04;91.54
71716;BME280;59568;52.128;5.434;2022-12-18T11:59:52;102665.16;;;-1.98;91.23
71716;BME280;59568;52.128;5.434;2022-12-18T12:02:33;102657.97;;;-1.95;91.89
71716;BME280;59568;52.128;5.434;2022-12-18T12:08:06;102652.66;;;-1.93;90.80
71716;BME280;59568;52.128;5.434;2022-12-18T12:10:55;102641.47;;;-1.92;90.80
71716;BME280;59568;52.128;5.434;2022-12-18T12:13:46;102634.41;;;-1.90;90.87
71716;BME280;59568;52.128;5.434;2022-12-18T12:19:38;102628.16;;;-1.88;90.29
71716;BME280;59568;52.128;5.434;2022-12-18T12:22:20;102625.94;;;-1.83;90.15
71716;BME280;59568;52.128;5.434;2022-12-18T12:27:55;102620.34;;;-1.78;89.95
71716;BME280;59568;52.128;5.434;2022-12-18T12:33:44;102613.63;;;-1.71;89.83
71716;BME280;59568;52.128;5.434;2022-12-18T12:36:54;102608.97;;;-1.67;89.61
71716;BME280;59568;52.128;5.434;2022-12-18T12:39:17;102605.31;;;-1.65;89.68
71716;BME280;59568;52.128;5.434;2022-12-18T12:41:47;102599.19;;;-1.64;89.54
71716;BME280;59568;52.128;5.434;2022-12-18T12:44:37;102592.16;;;-1.62;89.23
71716;BME280;59568;52.128;5.434;2022-12-18T12:47:18;102590.22;;;-1.59;89.34
71716;BME280;59568;52.128;5.434;2022-12-18T12:49:47;102584.16;;;-1.58;89.17
71716;BME280;59568;52.128;5.434;2022-12-18T12:52:46;102578.69;;;-1.55;89.02
71716;BME280;59568;52.128;5.434;2022-12-18T12:55:25;102579.66;;;-1.56;89.17
71716;BME280;59568;52.128;5.434;2022-12-18T13:00:25;102571.63;;;-1.53;88.82
71716;BME280;59568;52.128;5.434;2022-12-18T13:06:56;102571.97;;;-1.48;88.81
71716;BME280;59568;52.128;5.434;2022-12-18T13:08:58;102565.22;;;-1.49;88.64
71716;BME280;59568;52.128;5.434;2022-12-18T13:11:46;102560.09;;;-1.49;88.15
71716;BME280;59568;52.128;5.434;2022-12-18T13:14:35;102570.19;;;-1.48;88.44
71716;BME280;59568;52.128;5.434;2022-12-18T13:20:02;102573.75;;;-1.49;87.65
71716;BME280;59568;52.128;5.434;2022-12-18T13:22:35;102571.81;;;-1.47;87.65
71716;BME280;59568;52.128;5.434;2022-12-18T13:25:02;102578.69;;;-1.47;87.93
71716;BME280;59568;52.128;5.434;2022-12-18T13:38:36;102548.56;;;-1.45;87.20
71716;BME280;59568;52.128;5.434;2022-12-18T13:41:22;102540.06;;;-1.46;87.46
71716;BME280;59568;52.128;5.434;2022-12-18T13:43:52;102535.09;;;-1.47;87.09
71716;BME280;59568;52.128;5.434;2022-12-18T13:46:23;102536.72;;;-1.46;86.80
71716;BME280;59568;52.128;5.434;2022-12-18T13:49:03;102530.94;;;-1.48;86.35
71716;BME280;59568;52.128;5.434;2022-12-18T13:51:33;102521.81;;;-1.51;86.71
71716;BME280;59568;52.128;5.434;2022-12-18T13:54:17;102517.50;;;-1.50;86.73
71716;BME280;59568;52.128;5.434;2022-12-18T13:56:46;102507.22;;;-1.50;86.71
71716;BME280;59568;52.128;5.434;2022-12-18T13:59:24;102519.06;;;-1.49;86.18
71716;BME280;59568;52.128;5.434;2022-12-18T14:01:56;102513.16;;;-1.50;86.44
71716;BME280;59568;52.128;5.434;2022-12-18T14:04:32;102519.91;;;-1.49;86.06
71716;BME280;59568;52.128;5.434;2022-12-18T14:07:07;102504.50;;;-1.49;86.56
71716;BME280;59568;52.128;5.434;2022-12-18T14:12:38;102502.75;;;-1.48;86.22
71716;BME280;59568;52.128;5.434;2022-12-18T14:17:55;102492.50;;;-1.48;86.07
71716;BME280;59568;52.128;5.434;2022-12-18T14:20:24;102477.09;;;-1.48;85.98
71716;BME280;59568;52.128;5.434;2022-12-18T14:22:51;102486.38;;;-1.47;85.87
71716;BME280;59568;52.128;5.434;2022-12-18T14:25:23;102487.34;;;-1.48;86.10
71716;BME280;59568;52.128;5.434;2022-12-18T14:28:14;102477.09;;;-1.48;85.51
71716;BME280;59568;52.128;5.434;2022-12-18T14:30:43;102464.28;;;-1.48;85.66